Arlington, Kentucky
Current Conditions -  °F | °C
As of 4:35 PM on Tuesday 21 Oct 2014 (Local Time) from KCIR Reporting Station
Clear Clear  
Wind Chill: 73°   Ceiling: Unl
Heat Index: 73°   Visibility: 10mi
Dew Point: 44°   Wind: 6mph
Humidity: 36%   Direction: 30°NNE
Pressure: 30.07"   Gusts: NA
Location:  36.79°N, 89.01°W
Report Text: KCIR 212135Z AUTO 03005KT 10SM CLR 23/07 A3007 RMK AO2 T02260069
Loading
Personal Weather Stations






























Interactive Weather Map
Tropical Storm Tracking
New forecast layout! Learn more

10-Day Weather Forecast

Advertisements
Track Severe Weather on mobile